Latest Weather Observations for Adelaide Airport

IDS60801

Issued at 9:51 pm CST Thursday 24 September 2020 (issued every 10 minutes, with the page automatically refreshed every 10 minutes)

About weather observations | Map of weather stations | Latest weather observations for SA | Other Formats
Station Details ID: 023034 Name: ADELAIDE AIRPORT Lat: -34.95 Lon: 138.52 Height: 2.0 m
Data from the previous 72 hours. | See also: Recent months at Adelaide Airport
Date/Time
CST
Temp
°C
App
Temp
°C
Dew
Point
°C
Rel
Hum
%
Delta-T
°C
Wind Press
QNH
hPa
Press
MSL
hPa
Rain since
9am
mm
Dir  Spd
km/h
Gust
km/h
Spd
kts
Gust
kts
24/09:30pm 10.6 3.3 2.4 57 3.5 WSW 30 35 16 19 1009.7 1009.7 4.2
24/09:00pm 10.2 3.6 4.1 66 2.7 WSW 28 35 15 19 1009.8 1009.8 4.2
24/08:30pm 9.0 1.1 6.2 82 1.3 WSW 37 48 20 26 1010.2 1010.2 4.2
24/08:12pm 9.2 1.2 5.7 79 1.6 W 37 57 20 31 1010.2 1010.2 3.8
24/08:00pm 11.0 4.5 4.8 65 2.8 W 28 39 15 21 1009.9 1009.9 3.8
24/07:30pm 10.8 4.3 4.8 66 2.7 WSW 28 37 15 20 1010.0 1010.0 3.8
24/07:00pm 10.7 3.5 6.0 73 2.2 WSW 33 48 18 26 1009.9 1009.9 3.6
24/06:45pm 11.4 3.3 3.5 58 3.5 W 35 54 19 29 1010.0 1010.0 3.6
24/06:30pm 11.0 3.2 3.0 58 3.5 W 33 50 18 27 1009.9 1009.9 3.6
24/06:16pm 11.1 3.8 4.7 64 2.9 WSW 32 50 17 27 1009.9 1009.9 3.6
24/06:00pm 10.7 3.3 6.7 76 1.9 WSW 35 50 19 27 1009.9 1009.9 3.6
24/05:54pm 11.1 4.7 6.9 75 2.0 WSW 30 50 16 27 1010.0 1010.0 3.6
24/05:30pm 11.3 3.8 6.4 72 2.3 WSW 35 50 19 27 1010.0 1010.0 3.6
24/05:00pm 11.9 4.0 6.2 68 2.7 WSW 37 48 20 26 1010.0 1010.0 3.4
24/04:30pm 12.5 4.1 7.4 71 2.5 WSW 41 50 22 27 1009.6 1009.6 3.4
24/04:22pm 12.7 5.8 7.1 69 2.7 W 33 50 18 27 1009.6 1009.6 3.4
24/04:00pm 11.9 6.5 9.5 85 1.2 WNW 28 39 15 21 1009.6 1009.6 3.4
24/03:30pm 11.9 6.6 9.7 86 1.1 WNW 28 35 15 19 1009.8 1009.8 3.2
24/03:00pm 11.8 6.8 9.6 86 1.1 WNW 26 35 14 19 1010.2 1010.2 3.0
24/02:44pm 10.8 6.4 8.8 87 1.0 W 22 32 12 17 1010.4 1010.4 3.0
24/02:30pm 10.3 3.6 8.0 86 1.1 W 33 46 18 25 1010.5 1010.5 3.0
24/02:00pm 12.6 6.4 9.4 81 1.6 NW 32 43 17 23 1010.8 1010.8 0.8
24/01:45pm 12.4 5.1 8.8 79 1.8 WNW 37 52 20 28 1011.2 1011.2 0.8
24/01:30pm 12.1 4.9 9.1 82 1.5 WNW 37 57 20 31 1011.4 1011.4 0.8
24/01:26pm 12.5 4.9 8.9 79 1.8 WNW 39 57 21 31 1011.4 1011.4 0.6
24/01:25pm 12.6 5.0 9.0 79 1.8 WNW 39 54 21 29 1011.3 1011.3 0.6
24/01:00pm 14.5 7.0 6.2 57 4.0 NW 35 50 19 27 1011.4 1011.4 0.0
24/12:30pm 14.9 6.9 5.9 55 4.3 NW 37 48 20 26 1012.1 1012.1 0.0
24/12:00pm 15.0 7.7 7.1 59 3.9 NW 35 50 19 27 1012.8 1012.8 0.0
24/11:30am 14.3 7.3 6.7 60 3.7 NW 33 43 18 23 1013.4 1013.4 0.0
24/11:00am 14.3 7.2 6.4 59 3.8 NW 33 41 18 22 1014.1 1014.1 0.0
24/10:30am 13.3 7.1 6.1 61 3.4 WNW 28 39 15 21 1014.9 1014.9 0.0
24/10:00am 12.8 7.1 6.7 66 2.9 WNW 26 35 14 19 1015.8 1015.8 0.0
24/09:30am 12.7 7.4 6.9 68 2.8 WNW 24 32 13 17 1016.3 1016.3 0.0
24/09:00am 12.2 6.7 7.4 72 2.3 WNW 26 32 14 17 1016.5 1016.5 0.0
24/08:30am 12.9 5.9 6.1 63 3.2 WNW 32 39 17 21 1016.7 1016.7 0.0
24/08:00am 13.0 8.0 6.3 64 3.2 WNW 22 30 12 16 1016.8 1016.8 0.0
24/07:30am 11.9 6.7 7.1 72 2.3 WNW 24 32 13 17 1016.8 1016.8 0.0
24/07:00am 11.7 7.1 6.4 70 2.5 WNW 20 28 11 15 1016.9 1016.9 0.0
24/06:30am 11.5 7.3 7.3 75 2.0 WNW 19 26 10 14 1016.8 1016.8 0.0
24/06:00am 11.2 6.7 6.8 74 2.1 WNW 20 30 11 16 1016.8 1016.8 0.0
24/05:30am 11.4 7.1 7.0 74 2.1 WNW 19 26 10 14 1016.7 1016.7 0.0
24/05:00am 11.2 7.1 6.3 72 2.3 W 17 24 9 13 1017.0 1017.0 0.0
24/04:30am 11.2 7.0 7.5 78 1.8 W 19 26 10 14 1017.2 1017.2 0.0
24/04:00am 10.7 7.4 8.0 83 1.3 WSW 15 20 8 11 1017.4 1017.4 0.0
24/03:30am 11.3 7.8 7.3 76 1.9 W 15 22 8 12 1017.5 1017.5 0.0
24/03:00am 11.5 6.9 6.4 71 2.4 W 20 26 11 14 1017.7 1017.7 0.0
24/02:30am 11.2 7.4 5.8 69 2.5 W 15 19 8 10 1017.9 1017.9 0.0
24/02:00am 12.1 7.5 3.8 57 3.7 WSW 17 22 9 12 1018.3 1018.3 0.0
24/01:30am 12.0 7.7 3.4 55 3.8 WSW 15 24 8 13 1018.7 1018.7 0.0
24/01:00am 12.0 7.6 2.5 52 4.1 SW 15 24 8 13 1019.0 1019.0 0.0
24/12:30am 11.8 6.7 2.8 54 3.9 SW 19 26 10 14 1019.5 1019.5 0.0
24/12:00am 11.6 6.4 2.3 53 4.0 SW 19 26 10 14 1019.7 1019.7 0.0
 
Date/Time
CST
Temp
°C
App
Temp
°C
Dew
Point
°C
Rel
Hum
%
Delta-T
°C
Wind Press
QNH
hPa
Press
MSL
hPa
Rain since
9am
mm
Dir  Spd
km/h
Gust
km/h
Spd
kts
Gust
kts
23/11:30pm 11.7 6.4 3.0 55 3.8 SW 20 28 11 15 1020.0 1020.0 0.0
23/11:00pm 12.0 6.4 3.4 55 3.8 SW 22 30 12 16 1020.2 1020.2 0.0
23/10:30pm 11.9 5.6 3.8 57 3.6 SW 26 33 14 18 1020.5 1020.5 0.0
23/10:00pm 11.9 6.8 3.2 55 3.8 SW 19 24 10 13 1020.8 1020.8 0.0
23/09:30pm 12.0 6.0 3.4 55 3.8 SW 24 35 13 19 1021.0 1021.0 0.0
23/09:00pm 12.2 7.4 4.5 59 3.5 SW 19 30 10 16 1020.9 1020.9 0.0
23/08:30pm 12.2 6.6 5.2 62 3.2 SSW 24 33 13 18 1020.8 1020.8 0.0
23/08:00pm 12.3 7.0 6.9 69 2.6 SSW 24 33 13 18 1020.6 1020.6 0.0
23/07:30pm 12.8 8.7 6.0 63 3.2 SW 17 26 9 14 1020.5 1020.5 0.0
23/07:00pm 12.4 8.0 7.4 71 2.4 SW 20 32 11 17 1020.4 1020.4 0.0
23/06:30pm 12.8 9.8 7.7 71 2.5 SSW 13 17 7 9 1020.0 1020.0 0.0
23/06:00pm 12.9 8.7 7.3 69 2.7 WSW 19 26 10 14 1019.8 1019.8 0.0
23/05:30pm 13.5 9.0 7.1 65 3.1 SW 20 26 11 14 1019.9 1019.9 0.0
23/05:00pm 13.5 7.8 6.6 63 3.3 SW 26 33 14 18 1019.8 1019.8 0.0
23/04:30pm 13.7 8.5 7.3 65 3.1 SW 24 32 13 17 1019.5 1019.5 0.0
23/04:00pm 14.6 9.1 7.7 63 3.4 SW 26 33 14 18 1019.2 1019.2 0.0
23/03:30pm 14.3 8.3 6.9 61 3.6 SW 28 35 15 19 1019.2 1019.2 0.0
23/03:27pm 14.7 8.4 7.4 61 3.6 SW 30 35 16 19 1019.2 1019.2 0.0
23/03:00pm 15.0 7.0 5.5 53 4.5 WSW 37 44 20 24 1019.2 1019.2 0.0
23/02:30pm 15.1 6.3 5.4 52 4.6 WSW 41 48 22 26 1019.2 1019.2 0.0
23/02:00pm 14.8 7.3 4.7 51 4.7 SW 33 48 18 26 1019.2 1019.2 0.0
23/01:30pm 15.0 7.8 6.0 55 4.3 WSW 33 43 18 23 1019.3 1019.3 0.0
23/01:00pm 14.6 7.9 7.2 61 3.6 WSW 32 37 17 20 1019.5 1019.5 0.0
23/12:30pm 14.8 7.6 7.7 62 3.5 WSW 35 41 19 22 1019.6 1019.6 0.0
23/12:00pm 14.2 7.5 7.5 64 3.3 WSW 32 37 17 20 1019.6 1019.6 0.0
23/11:30am 14.6 7.8 6.8 59 3.8 WSW 32 43 17 23 1019.7 1019.7 0.0
23/11:00am 14.5 8.2 7.4 62 3.5 SW 30 35 16 19 1019.7 1019.7 0.0
23/10:30am 14.6 7.8 7.0 60 3.7 SW 32 41 17 22 1019.8 1019.8 0.0
23/10:00am 14.0 8.1 7.5 65 3.2 SW 28 35 15 19 1019.6 1019.6 0.0
23/09:30am 13.4 7.3 8.4 72 2.5 SW 30 37 16 20 1019.5 1019.5 0.0
23/09:00am 12.3 7.2 7.8 74 2.2 W 24 33 13 18 1019.4 1019.4 4.4
23/08:30am 11.7 7.6 10.1 90 0.8 W 22 32 12 17 1019.1 1019.1 4.4
23/08:06am 11.3 6.0 9.9 91 0.7 W 28 48 15 26 1018.8 1018.8 4.0
23/08:00am 11.8 7.6 9.6 86 1.1 W 22 32 12 17 1018.8 1018.8 3.8
23/07:58am 12.2 8.2 9.2 82 1.5 W 20 32 11 17 1018.7 1018.7 2.8
23/07:30am 11.4 5.9 9.2 86 1.1 W 28 37 15 20 1018.6 1018.6 2.8
23/07:00am 11.3 5.7 8.7 84 1.3 WSW 28 33 15 18 1018.2 1018.2 2.8
23/06:30am 11.1 6.4 9.1 87 1.0 W 24 33 13 18 1017.9 1017.9 2.8
23/06:16am 10.9 6.2 9.3 90 0.8 W 24 32 13 17 1017.8 1017.8 2.8
23/06:00am 11.2 5.8 9.4 89 0.9 W 28 35 15 19 1017.7 1017.7 2.4
23/05:30am 11.8 6.0 8.1 78 1.8 W 28 35 15 19 1017.2 1017.2 2.0
23/05:00am 11.5 5.1 8.5 82 1.5 W 32 39 17 21 1016.8 1016.8 2.0
23/04:30am 11.6 5.6 8.6 82 1.5 WSW 30 35 16 19 1016.7 1016.7 1.8
23/04:00am 12.1 5.0 8.2 77 1.9 W 35 43 19 23 1016.5 1016.5 1.8
23/03:30am 12.3 5.8 8.0 75 2.1 W 32 43 17 23 1016.4 1016.4 1.8
23/03:00am 12.1 5.9 8.0 76 2.0 W 30 39 16 21 1016.4 1016.4 1.8
23/02:30am 12.4 6.0 8.4 76 2.0 W 32 41 17 22 1016.5 1016.5 1.8
23/02:00am 12.6 6.1 8.1 74 2.2 W 32 44 17 24 1016.7 1016.7 1.8
23/01:30am 12.5 6.9 8.9 79 1.8 W 28 37 15 20 1016.8 1016.8 1.8
23/01:00am 12.6 5.8 7.9 73 2.3 W 33 43 18 23 1016.9 1016.9 1.8
23/12:30am 12.6 6.9 8.4 75 2.1 W 28 39 15 21 1017.1 1017.1 1.8
23/12:00am 12.5 6.0 8.2 75 2.1 W 32 43 17 23 1017.1 1017.1 1.8
 
Date/Time
CST
Temp
°C
App
Temp
°C
Dew
Point
°C
Rel
Hum
%
Delta-T
°C
Wind Press
QNH
hPa
Press
MSL
hPa
Rain since
9am
mm
Dir  Spd
km/h
Gust
km/h
Spd
kts
Gust
kts
22/11:30pm 12.5 6.0 8.2 75 2.1 W 32 48 17 26 1017.2 1017.2 1.8
22/11:00pm 12.6 5.6 8.4 75 2.1 W 35 46 19 25 1017.3 1017.3 1.8
22/10:30pm 12.9 6.4 8.2 73 2.3 W 32 39 17 21 1017.3 1017.3 1.8
22/10:00pm 13.0 6.4 8.4 73 2.3 W 33 46 18 25 1017.4 1017.4 1.8
22/09:30pm 12.7 7.5 8.7 76 2.0 W 26 33 14 18 1017.4 1017.4 1.8
22/09:00pm 12.4 7.7 9.4 82 1.5 W 24 32 13 17 1017.2 1017.2 1.8
22/08:30pm 13.2 7.7 9.0 75 2.1 W 28 39 15 21 1017.0 1017.0 1.6
22/08:00pm 13.3 6.8 8.3 72 2.5 W 32 43 17 23 1016.7 1016.7 1.6
22/07:30pm 13.7 7.1 7.8 67 2.9 W 32 41 17 22 1016.2 1016.2 1.6
22/07:00pm 13.7 6.9 7.1 64 3.2 W 32 44 17 24 1015.8 1015.8 1.6
22/06:30pm 13.9 8.4 9.0 72 2.5 W 28 33 15 18 1015.5 1015.5 1.6
22/06:00pm 13.8 8.2 8.6 71 2.6 W 28 33 15 18 1015.2 1015.2 1.6
22/05:30pm 13.8 9.3 8.6 71 2.6 WNW 22 32 12 17 1014.9 1014.9 1.6
22/05:00pm 13.9 7.5 9.2 73 2.4 WNW 33 41 18 22 1014.6 1014.6 1.4
22/04:30pm 12.8 8.3 9.9 82 1.5 WSW 24 32 13 17 1014.5 1014.5 1.4
22/04:15pm 12.4 7.1 9.9 85 1.3 WSW 28 50 15 27 1014.4 1014.4 1.2
22/04:00pm 14.8 8.5 9.6 71 2.7 W 33 44 18 24 1014.2 1014.2 1.2
22/03:30pm 14.6 9.4 8.9 68 2.9 WNW 26 39 14 21 1014.0 1014.0 1.2
22/03:00pm 13.7 7.5 9.4 75 2.2 W 32 44 17 24 1013.9 1013.9 1.2
22/02:41pm 13.9 7.1 9.2 73 2.4 W 35 52 19 28 1013.7 1013.7 1.0
22/02:30pm 15.7 9.5 9.3 65 3.3 WNW 32 39 17 21 1013.6 1013.6 1.0
22/02:00pm 15.2 9.1 9.8 70 2.8 W 32 41 17 22 1013.4 1013.4 1.0
22/01:30pm 14.7 8.7 10.1 74 2.4 WNW 32 43 17 23 1013.4 1013.4 1.0
22/01:00pm 14.0 7.7 9.7 75 2.2 W 33 48 18 26 1013.3 1013.3 1.0
22/12:40pm 13.2 6.3 10.3 82 1.5 WNW 37 56 20 30 1013.4 1013.4 0.8
22/12:36pm 15.5 8.1 9.9 69 2.9 WNW 39 52 21 28 1013.2 1013.2 0.6
22/12:30pm 15.9 9.1 10.8 71 2.7 WNW 37 52 20 28 1013.2 1013.2 0.6
22/12:00pm 14.7 8.0 10.9 78 2.0 WNW 37 48 20 26 1013.3 1013.3 0.6
22/11:48am 14.3 7.9 10.7 79 1.9 W 35 54 19 29 1013.3 1013.3 0.6
22/11:30am 12.8 7.0 10.7 87 1.1 W 32 43 17 23 1013.1 1013.1 0.6
22/11:21am 14.5 7.1 9.9 74 2.4 WNW 39 52 21 28 1012.9 1012.9 0.0
22/11:08am 16.0 8.4 9.0 63 3.6 WNW 39 57 21 31 1012.8 1012.8 0.0
22/11:00am 15.5 8.0 7.9 60 3.8 WNW 37 52 20 28 1012.8 1012.8 0.0
22/10:30am 15.7 9.2 8.9 64 3.5 WNW 33 46 18 25 1012.6 1012.6 0.0
22/10:00am 15.0 8.3 9.6 70 2.8 WNW 35 46 19 25 1012.4 1012.4 0.0
22/09:30am 14.9 7.7 9.0 68 3.0 WNW 37 50 20 27 1012.4 1012.4 0.0
22/09:00am 13.8 7.3 9.1 73 2.4 WNW 33 48 18 26 1012.3 1012.3 2.6
22/08:30am 13.3 5.6 8.7 73 2.3 WNW 39 52 21 28 1012.1 1012.1 2.6
22/08:21am 13.5 7.1 8.5 72 2.5 WNW 32 50 17 27 1011.9 1011.9 2.6
22/08:00am 12.7 4.9 8.3 74 2.2 WNW 39 52 21 28 1011.8 1011.8 2.6
22/07:33am 13.2 6.6 8.4 72 2.4 WNW 33 52 18 28 1011.4 1011.4 2.6
22/07:30am 13.2 6.8 8.6 73 2.3 WNW 32 43 17 23 1011.3 1011.3 2.6
22/07:00am 13.0 6.4 8.4 73 2.3 WNW 33 44 18 24 1010.8 1010.8 2.6
22/06:42am 12.5 6.6 8.9 79 1.8 WNW 30 41 16 22 1010.7 1010.7 2.6
22/06:30am 11.8 4.7 9.4 85 1.2 WNW 37 50 20 27 1010.5 1010.5 2.6
22/06:16am 12.2 6.2 10.1 87 1.1 NW 32 39 17 21 1010.2 1010.2 2.6
22/06:00am 12.6 6.4 9.2 80 1.7 NW 32 41 17 22 1010.1 1010.1 2.2
22/05:30am 12.4 6.1 9.7 83 1.4 NW 33 44 18 24 1009.8 1009.8 2.2
22/05:12am 12.3 6.1 10.0 86 1.2 WNW 33 43 18 23 1009.5 1009.5 2.2
22/05:06am 12.1 6.5 10.2 88 1.0 WNW 30 43 16 23 1009.5 1009.5 2.2
22/05:00am 11.7 6.4 9.9 89 0.9 WNW 28 37 15 20 1009.3 1009.3 2.2
22/04:44am 12.4 6.5 10.3 87 1.1 NW 32 41 17 22 1009.1 1009.1 1.2
22/04:30am 12.7 5.9 9.1 79 1.8 NW 35 48 19 26 1008.9 1008.9 1.0
22/04:17am 12.5 6.4 9.8 83 1.4 NW 32 41 17 22 1008.8 1008.8 1.0
22/04:00am 12.3 5.3 10.0 86 1.2 WNW 37 61 20 33 1008.8 1008.8 0.8
22/03:56am 12.3 5.2 9.5 83 1.4 NW 37 61 20 33 1008.8 1008.8 0.8
22/03:54am 12.5 5.7 9.3 81 1.6 NW 35 54 19 29 1008.8 1008.8 0.8
22/03:30am 13.0 6.6 9.5 79 1.8 WNW 33 46 18 25 1008.7 1008.7 0.8
22/03:00am 12.7 6.5 9.4 80 1.7 NW 32 48 17 26 1008.7 1008.7 0.8
22/02:57am 12.7 6.8 9.1 79 1.8 NW 30 48 16 26 1008.7 1008.7 0.8
22/02:30am 12.5 6.3 9.3 81 1.6 NW 32 39 17 21 1008.7 1008.7 0.8
22/02:02am 12.7 6.9 9.6 81 1.6 WNW 30 37 16 20 1008.8 1008.8 0.8
22/02:00am 12.7 6.6 9.6 81 1.6 WNW 32 41 17 22 1008.9 1008.9 0.8
22/01:50am 12.2 4.7 9.6 84 1.3 WNW 39 56 21 30 1008.9 1008.9 0.8
22/01:44am 13.2 7.0 9.3 77 2.0 WNW 32 56 17 30 1009.0 1009.0 0.6
22/01:30am 12.8 7.5 9.7 81 1.6 NW 28 39 15 21 1009.1 1009.1 0.6
22/01:01am 12.3 6.3 10.2 87 1.1 NW 32 41 17 22 1009.1 1009.1 0.6
22/01:00am 12.3 6.3 10.2 87 1.1 WNW 32 41 17 22 1009.1 1009.1 0.6
22/12:49am 12.1 5.2 10.2 88 1.0 WNW 37 56 20 30 1009.1 1009.1 0.6
22/12:39am 12.9 5.4 9.6 80 1.7 NW 39 50 21 27 1009.2 1009.2 0.4
22/12:30am 13.5 6.6 9.0 74 2.3 NW 35 48 19 26 1009.0 1009.0 0.2
22/12:00am 13.5 6.0 8.1 70 2.7 WNW 37 52 20 28 1009.0 1009.0 0.2
 
Date/Time
CST
Temp
°C
App
Temp
°C
Dew
Point
°C
Rel
Hum
%
Delta-T
°C
Wind Press
QNH
hPa
Press
MSL
hPa
Rain since
9am
mm
Dir  Spd
km/h
Gust
km/h
Spd
kts
Gust
kts
21/11:30pm 13.5 6.9 8.7 73 2.4 WNW 33 48 18 26 1008.9 1008.9 0.2
21/11:00pm 13.2 6.8 8.4 72 2.4 WNW 32 44 17 24 1008.9 1008.9 0.2
21/10:30pm 13.5 6.1 10.0 79 1.8 WNW 39 54 21 29 1008.8 1008.8 0.2
21/10:21pm 13.4 6.7 9.7 78 1.9 WNW 35 54 19 29 1008.8 1008.8 0.2
21/10:05pm 13.0 6.4 10.1 82 1.5 WNW 35 48 19 26 1008.6 1008.6 0.2
21/10:00pm 12.7 6.2 10.2 85 1.3 WNW 35 44 19 24 1008.5 1008.5 0.2
21/09:53pm 12.4 4.4 10.3 87 1.1 WNW 43 57 23 31 1008.5 1008.5 0.2

Other formats

Comma delimited format used in spreadsheet applications
http://www.bom.gov.au/fwo/IDS60801/IDS60801.94672.axf

JavaScript Object Notation format (JSON) in row-major order
http://www.bom.gov.au/fwo/IDS60801/IDS60801.94672.json

Data quality

Most of these data are generated automatically and are frequently updated. Quality checks on data are not normally performed. It is possible for incorrect values to appear. Refer to information at About Latest Weather Observations and please check the disclaimer before using these data.